createdAt,value
2019-01-30T00:01:03.632Z,14.53
2019-01-30T00:03:33.551Z,14.53
2019-01-30T00:06:03.232Z,14.53
2019-01-30T00:08:32.864Z,14.20
2019-01-30T00:11:02.555Z,13.70
2019-01-30T00:13:32.159Z,13.93
2019-01-30T00:16:01.843Z,14.53
2019-01-30T00:18:31.540Z,14.80
2019-01-30T00:21:01.146Z,14.63
2019-01-30T00:23:30.827Z,13.13
2019-01-30T00:26:00.569Z,13.80
2019-01-30T00:28:30.617Z,14.13
2019-01-30T00:31:00.224Z,13.20
2019-01-30T00:33:29.831Z,14.10
2019-01-30T00:35:59.424Z,14.00
2019-01-30T00:38:29.101Z,13.50
2019-01-30T00:40:58.939Z,13.97
2019-01-30T00:43:28.606Z,13.80
2019-01-30T00:45:58.203Z,14.37
2019-01-30T00:48:27.877Z,14.37
2019-01-30T00:50:57.470Z,13.03
2019-01-30T00:53:27.394Z,14.60
2019-01-30T00:55:56.976Z,13.67
2019-01-30T00:58:26.578Z,13.93
2019-01-30T01:00:56.188Z,13.00
2019-01-30T01:03:26.926Z,14.70
2019-01-30T01:05:56.531Z,14.00
2019-01-30T01:08:26.368Z,13.87
2019-01-30T01:10:56.046Z,14.40
2019-01-30T01:13:25.639Z,14.43
2019-01-30T01:15:55.263Z,12.37
2019-01-30T01:18:24.859Z,13.93
2019-01-30T01:20:54.470Z,13.03
2019-01-30T01:23:24.055Z,12.57
2019-01-30T01:25:53.678Z,12.30
2019-01-30T01:28:23.627Z,14.87
2019-01-30T01:30:53.269Z,12.23
2019-01-30T01:33:24.583Z,12.47
2019-01-30T01:35:54.511Z,12.80
2019-01-30T01:38:24.119Z,13.27
2019-01-30T01:40:53.751Z,14.30
2019-01-30T01:43:23.389Z,13.80
2019-01-30T01:45:53.015Z,12.90
2019-01-30T01:48:22.619Z,12.60
2019-01-30T01:50:52.569Z,11.77
2019-01-30T01:53:22.243Z,12.07
2019-01-30T01:55:51.926Z,12.10
2019-01-30T01:58:21.516Z,12.97
2019-01-30T02:00:51.208Z,11.30
2019-01-30T02:03:21.092Z,12.20
2019-01-30T02:05:51.042Z,11.47
2019-01-30T02:08:20.670Z,11.00
2019-01-30T02:10:50.258Z,12.57
2019-01-30T02:13:19.874Z,11.10
2019-01-30T02:15:49.455Z,10.93
2019-01-30T02:18:19.084Z,10.80
2019-01-30T02:20:48.679Z,11.57
2019-01-30T02:23:18.303Z,11.47
2019-01-30T02:25:48.854Z,11.30
2019-01-30T02:28:18.482Z,10.97
2019-01-30T02:30:48.085Z,10.77
2019-01-30T02:33:17.696Z,11.23
2019-01-30T02:35:47.578Z,9.90
2019-01-30T02:38:17.175Z,10.87
2019-01-30T02:40:46.795Z,10.00
2019-01-30T02:43:16.386Z,10.13
2019-01-30T02:45:46.263Z,11.07
2019-01-30T02:48:15.862Z,10.00
2019-01-30T02:50:45.459Z,8.87
2019-01-30T02:53:15.062Z,9.40
2019-01-30T02:55:44.655Z,10.70
2019-01-30T02:58:14.261Z,9.30
2019-01-30T03:00:44.234Z,9.63
2019-01-30T03:03:13.850Z,9.47
2019-01-30T03:05:43.458Z,8.43
2019-01-30T03:08:13.269Z,8.53
2019-01-30T03:10:42.915Z,9.80
2019-01-30T03:13:12.871Z,9.33
2019-01-30T03:15:42.466Z,9.60
2019-01-30T03:18:12.055Z,9.90
2019-01-30T03:20:41.744Z,9.23
2019-01-30T03:23:11.338Z,10.40
2019-01-30T03:25:41.272Z,10.00
2019-01-30T03:28:10.876Z,9.30
2019-01-30T03:30:40.485Z,9.13
2019-01-30T03:33:11.057Z,10.03
2019-01-30T03:35:40.734Z,9.20
2019-01-30T03:38:10.435Z,8.70
2019-01-30T03:40:40.491Z,9.70
2019-01-30T03:43:10.090Z,10.23
2019-01-30T03:45:39.663Z,8.90
2019-01-30T03:48:09.635Z,8.80
2019-01-30T03:50:39.214Z,9.60
2019-01-30T03:53:09.058Z,9.40
2019-01-30T03:55:38.707Z,9.23
2019-01-30T03:58:08.315Z,9.73
2019-01-30T04:00:37.930Z,8.80
2019-01-30T04:03:07.530Z,9.27
2019-01-30T04:05:37.116Z,9.30
2019-01-30T04:08:06.724Z,9.10
2019-01-30T04:10:36.369Z,9.80
2019-01-30T04:13:06.053Z,9.87
2019-01-30T04:15:35.646Z,9.63
2019-01-30T04:18:05.308Z,9.50
2019-01-30T04:20:35.183Z,10.43
2019-01-30T04:23:05.035Z,11.10
2019-01-30T04:25:34.612Z,10.23
2019-01-30T04:28:04.286Z,9.70
2019-01-30T04:30:33.960Z,10.23
2019-01-30T04:33:03.567Z,11.00
2019-01-30T04:35:33.511Z,11.93
2019-01-30T04:38:03.110Z,10.90
2019-01-30T04:40:32.723Z,10.13
2019-01-30T04:43:02.312Z,11.87
2019-01-30T04:45:31.915Z,10.63
2019-01-30T04:48:01.520Z,11.03
2019-01-30T04:50:31.107Z,11.10
2019-01-30T04:53:00.704Z,9.90
2019-01-30T04:55:30.282Z,10.73
2019-01-30T04:57:59.894Z,10.40
2019-01-30T05:00:29.593Z,11.83
2019-01-30T05:02:59.436Z,10.70
2019-01-30T05:05:29.188Z,10.40
2019-01-30T05:07:58.763Z,11.23
2019-01-30T05:10:28.438Z,12.13
2019-01-30T05:12:58.011Z,10.80
2019-01-30T05:15:27.628Z,11.60
2019-01-30T05:17:57.238Z,11.40
2019-01-30T05:20:26.834Z,12.60
2019-01-30T05:22:56.442Z,11.67
2019-01-30T05:25:26.035Z,11.73
2019-01-30T05:27:55.623Z,12.37
2019-01-30T05:30:27.831Z,12.40
2019-01-30T05:32:57.434Z,12.83
2019-01-30T05:35:27.098Z,11.47
2019-01-30T05:37:56.702Z,12.00
2019-01-30T05:40:26.567Z,11.87
2019-01-30T05:42:56.172Z,12.03
2019-01-30T05:45:25.904Z,12.27
2019-01-30T05:47:55.808Z,12.77
2019-01-30T05:50:25.395Z,11.83
2019-01-30T05:52:55.007Z,12.03
2019-01-30T05:55:24.693Z,12.03
2019-01-30T05:57:54.365Z,11.70
2019-01-30T06:00:28.981Z,11.63
2019-01-30T06:02:58.674Z,12.83
2019-01-30T06:05:28.327Z,12.00
2019-01-30T06:07:57.930Z,12.20
2019-01-30T06:10:27.681Z,11.73
2019-01-30T06:12:57.375Z,10.87
2019-01-30T06:15:27.063Z,12.47
2019-01-30T06:17:56.925Z,12.17
2019-01-30T06:20:27.339Z,10.80
2019-01-30T06:22:57.524Z,11.30
2019-01-30T06:25:27.105Z,12.40
2019-01-30T06:27:56.711Z,11.60
2019-01-30T06:30:26.363Z,11.17
2019-01-30T06:32:56.231Z,11.33
2019-01-30T06:35:45.095Z,11.40
2019-01-30T06:38:14.739Z,11.40
2019-01-30T06:40:44.370Z,11.77
2019-01-30T06:43:14.312Z,11.20
2019-01-30T06:45:44.270Z,10.60
2019-01-30T06:48:13.884Z,11.83
2019-01-30T06:50:43.491Z,10.47
2019-01-30T06:53:13.115Z,11.43
2019-01-30T06:55:42.731Z,11.23
2019-01-30T06:58:12.360Z,11.87
2019-01-30T07:00:41.982Z,10.90
2019-01-30T07:03:11.585Z,11.00
2019-01-30T07:05:41.193Z,10.03
2019-01-30T07:08:10.885Z,11.30
2019-01-30T07:10:40.510Z,9.70
2019-01-30T07:13:10.099Z,10.80
2019-01-30T07:15:39.711Z,10.27
2019-01-30T07:18:09.449Z,10.00
2019-01-30T07:20:39.336Z,9.70
2019-01-30T07:23:09.071Z,10.43
2019-01-30T07:25:38.686Z,12.90
2019-01-30T07:28:08.295Z,11.70
2019-01-30T07:30:38.001Z,11.20
2019-01-30T07:33:07.972Z,11.10
2019-01-30T07:35:37.923Z,10.67
2019-01-30T07:38:07.594Z,9.40
2019-01-30T07:40:37.255Z,10.27
2019-01-30T07:43:06.886Z,10.80
2019-01-30T07:45:36.478Z,9.80
2019-01-30T07:48:06.087Z,9.90
2019-01-30T07:50:35.691Z,10.80
2019-01-30T07:53:05.963Z,10.30
2019-01-30T07:55:35.869Z,9.40
2019-01-30T07:58:05.998Z,10.07
2019-01-30T08:00:36.831Z,10.27
2019-01-30T08:03:06.432Z,9.30
2019-01-30T08:05:36.077Z,10.03
2019-01-30T08:08:05.831Z,9.20
2019-01-30T08:10:35.476Z,10.43
2019-01-30T08:13:05.442Z,9.27
2019-01-30T08:15:35.033Z,8.93
2019-01-30T08:18:04.883Z,8.60
2019-01-30T08:20:34.503Z,8.70
2019-01-30T08:23:04.468Z,10.33
2019-01-30T08:25:34.135Z,10.00
2019-01-30T08:28:05.353Z,9.50
2019-01-30T08:30:35.614Z,10.60
2019-01-30T08:33:05.921Z,9.10
2019-01-30T08:35:36.107Z,9.90
2019-01-30T08:38:06.164Z,9.50
2019-01-30T08:40:35.763Z,9.90
2019-01-30T08:43:06.099Z,9.37
2019-01-30T08:45:35.696Z,9.60
2019-01-30T08:48:05.536Z,9.60
2019-01-30T08:50:35.144Z,9.10
2019-01-30T08:53:05.107Z,8.40
2019-01-30T08:55:34.723Z,9.40
2019-01-30T08:58:04.747Z,8.30
2019-01-30T09:00:34.361Z,9.40
2019-01-30T09:03:14.208Z,8.67
2019-01-30T09:05:35.622Z,9.10
2019-01-30T09:08:08.697Z,9.67
2019-01-30T09:10:37.362Z,9.03
2019-01-30T09:13:07.019Z,9.23
2019-01-30T09:15:36.634Z,9.67
2019-01-30T09:18:06.765Z,9.40
2019-01-30T09:20:36.367Z,8.73
2019-01-30T09:23:06.364Z,8.20
2019-01-30T09:25:35.971Z,8.90
2019-01-30T09:28:05.643Z,8.20
2019-01-30T09:30:37.294Z,8.80
2019-01-30T09:33:09.643Z,8.50
2019-01-30T09:35:39.275Z,8.90
2019-01-30T09:38:09.055Z,9.00
2019-01-30T09:40:39.733Z,8.53
2019-01-30T09:43:09.387Z,8.60
2019-01-30T09:45:38.999Z,9.00
2019-01-30T09:48:08.799Z,8.43
2019-01-30T09:50:38.438Z,8.40
2019-01-30T09:53:08.183Z,8.37
2019-01-30T09:55:38.114Z,8.50
2019-01-30T09:58:07.698Z,8.53
2019-01-30T10:00:38.268Z,8.17
2019-01-30T10:03:07.967Z,8.83
2019-01-30T10:05:37.702Z,8.90
2019-01-30T10:08:08.408Z,7.17
2019-01-30T10:10:39.257Z,7.90
2019-01-30T10:13:09.496Z,8.10
2019-01-30T10:15:41.259Z,8.13
2019-01-30T10:18:12.350Z,6.93
2019-01-30T10:20:42.999Z,7.47
2019-01-30T10:23:12.731Z,7.67
2019-01-30T10:25:42.418Z,7.13
2019-01-30T10:28:16.629Z,6.87
2019-01-30T10:30:44.923Z,7.50
2019-01-30T10:33:14.715Z,7.40
2019-01-30T10:35:44.754Z,7.47
2019-01-30T10:38:14.731Z,7.50
2019-01-30T10:40:44.308Z,6.83
2019-01-30T10:43:14.138Z,7.30
2019-01-30T10:45:43.799Z,7.33
2019-01-30T10:48:13.604Z,6.10
2019-01-30T10:50:43.200Z,6.90
2019-01-30T10:53:12.916Z,7.07
2019-01-30T10:55:43.614Z,6.97
2019-01-30T10:58:15.862Z,6.03
2019-01-30T11:00:48.077Z,6.13
2019-01-30T11:03:18.702Z,5.77
2019-01-30T11:05:48.723Z,6.70
2019-01-30T11:08:18.343Z,6.73
2019-01-30T11:10:50.639Z,10.43
2019-01-30T11:13:19.347Z,6.97
2019-01-30T11:15:49.011Z,7.87
2019-01-30T11:18:19.079Z,6.33
2019-01-30T11:20:48.837Z,6.13
2019-01-30T11:23:18.448Z,6.73
2019-01-30T11:25:49.465Z,6.00
2019-01-30T11:28:19.263Z,5.93
2019-01-30T11:30:48.889Z,6.23
2019-01-30T11:33:18.928Z,5.70
2019-01-30T11:35:48.630Z,7.07
2019-01-30T11:38:18.282Z,6.00
2019-01-30T11:40:48.069Z,5.27
2019-01-30T11:43:17.662Z,5.43
2019-01-30T11:45:47.419Z,5.57
2019-01-30T11:48:17.287Z,5.47
2019-01-30T11:50:46.875Z,5.03
2019-01-30T11:53:16.519Z,5.80
2019-01-30T11:55:46.191Z,5.07
2019-01-30T11:58:15.794Z,5.33
2019-01-30T12:00:53.438Z,6.10
2019-01-30T12:03:23.292Z,5.70
2019-01-30T12:05:53.077Z,5.87
2019-01-30T12:08:22.663Z,4.60
2019-01-30T12:10:52.342Z,4.73
2019-01-30T12:13:22.218Z,4.60
2019-01-30T12:15:51.882Z,5.80
2019-01-30T12:18:21.530Z,4.67
2019-01-30T12:20:51.952Z,5.10
2019-01-30T12:23:21.879Z,4.80
2019-01-30T12:25:51.590Z,4.67
2019-01-30T12:28:21.891Z,4.37
2019-01-30T12:30:51.718Z,5.60
2019-01-30T12:33:21.316Z,4.47
2019-01-30T12:35:50.924Z,4.60
2019-01-30T12:38:20.527Z,5.07
2019-01-30T12:40:50.192Z,4.93
2019-01-30T12:43:19.892Z,4.60
2019-01-30T12:45:49.560Z,4.33
2019-01-30T12:48:19.390Z,4.60
2019-01-30T12:50:48.974Z,4.77
2019-01-30T12:53:18.577Z,3.83
2019-01-30T12:55:48.323Z,4.93
2019-01-30T12:58:18.206Z,4.80
2019-01-30T13:00:48.351Z,4.40
2019-01-30T13:03:18.069Z,8.77
2019-01-30T13:05:47.811Z,3.90
2019-01-30T13:08:17.384Z,4.40
2019-01-30T13:10:47.001Z,4.37
2019-01-30T13:13:16.686Z,4.50
2019-01-30T13:15:46.675Z,4.20
2019-01-30T13:18:18.594Z,3.23
2019-01-30T13:20:48.115Z,3.50
2019-01-30T13:23:17.771Z,3.80
2019-01-30T13:25:47.366Z,4.13
2019-01-30T13:28:17.067Z,3.13
2019-01-30T13:30:46.677Z,3.20
2019-01-30T13:33:16.827Z,2.93
2019-01-30T13:35:46.493Z,2.87
2019-01-30T13:38:16.084Z,2.90
2019-01-30T13:40:45.683Z,2.77
2019-01-30T13:43:15.441Z,3.50
2019-01-30T13:45:45.044Z,3.03
2019-01-30T13:48:19.396Z,3.40
2019-01-30T13:50:49.189Z,3.00
2019-01-30T13:53:18.888Z,2.90
2019-01-30T13:55:48.591Z,2.47
2019-01-30T13:58:18.367Z,3.10
2019-01-30T14:00:48.396Z,2.80
2019-01-30T14:03:18.007Z,3.37
2019-01-30T14:05:47.589Z,4.10
2019-01-30T14:08:17.171Z,3.03
2019-01-30T14:10:46.752Z,3.00
2019-01-30T14:13:16.364Z,2.70
2019-01-30T14:15:46.029Z,3.30
2019-01-30T14:18:15.684Z,2.80
2019-01-30T14:20:45.255Z,2.63
2019-01-30T14:23:14.844Z,2.60
2019-01-30T14:25:44.445Z,3.27
2019-01-30T14:28:14.063Z,2.30
2019-01-30T14:30:43.944Z,2.73
2019-01-30T14:33:13.571Z,2.63
2019-01-30T14:35:44.846Z,2.97
2019-01-30T14:38:14.831Z,2.30
2019-01-30T14:40:44.490Z,3.17
2019-01-30T14:43:14.165Z,2.50
2019-01-30T14:45:43.770Z,2.60
2019-01-30T14:48:13.461Z,2.60
2019-01-30T14:50:43.245Z,3.03
2019-01-30T14:53:12.875Z,2.67
2019-01-30T14:55:42.507Z,2.70
2019-01-30T14:58:13.819Z,3.60
2019-01-30T15:00:44.442Z,4.10
2019-01-30T15:03:14.138Z,3.40
2019-01-30T15:05:44.048Z,4.63
2019-01-30T15:08:13.641Z,3.07
2019-01-30T15:10:43.268Z,3.53
2019-01-30T15:13:12.899Z,3.13
2019-01-30T15:15:44.290Z,3.00
2019-01-30T15:18:14.108Z,3.07
2019-01-30T15:20:43.695Z,4.17
2019-01-30T15:23:13.429Z,4.03
2019-01-30T15:25:43.047Z,4.00
2019-01-30T15:28:12.884Z,3.73
2019-01-30T15:30:44.891Z,4.07
2019-01-30T15:33:14.928Z,3.40
2019-01-30T15:35:44.698Z,3.40
2019-01-30T15:38:20.667Z,4.10
2019-01-30T15:40:49.909Z,3.80
2019-01-30T15:43:19.543Z,4.00
2019-01-30T15:45:49.144Z,4.47
2019-01-30T15:48:18.756Z,3.80
2019-01-30T15:50:48.344Z,4.40
2019-01-30T15:53:20.282Z,4.53
2019-01-30T15:55:50.282Z,4.13
2019-01-30T15:58:19.991Z,4.83
2019-01-30T16:01:06.383Z,4.40
2019-01-30T16:03:36.043Z,5.57
2019-01-30T16:06:06.226Z,4.50
2019-01-30T16:08:35.818Z,5.10
2019-01-30T16:11:05.482Z,4.97
2019-01-30T16:13:35.078Z,5.07
2019-01-30T16:16:06.287Z,5.33
2019-01-30T16:18:35.882Z,5.33
2019-01-30T16:21:05.518Z,5.20
2019-01-30T16:23:35.118Z,4.73
2019-01-30T16:26:05.048Z,6.07
2019-01-30T16:28:34.655Z,5.47
2019-01-30T16:31:04.418Z,5.23
2019-01-30T16:33:34.367Z,5.47
2019-01-30T16:36:04.526Z,5.43
2019-01-30T16:38:34.132Z,5.07
2019-01-30T16:41:03.972Z,5.27
2019-01-30T16:43:33.883Z,6.20
2019-01-30T16:46:03.673Z,6.97
2019-01-30T16:48:33.275Z,5.80
2019-01-30T16:51:03.094Z,5.53
2019-01-30T16:53:32.687Z,8.70
2019-01-30T16:56:02.342Z,5.63
2019-01-30T16:58:32.091Z,6.30
2019-01-30T17:01:01.679Z,6.23
2019-01-30T17:03:31.379Z,5.83
2019-01-30T17:06:07.641Z,6.03
2019-01-30T17:08:32.339Z,6.23
2019-01-30T17:11:01.944Z,6.40
2019-01-30T17:13:31.585Z,6.23
2019-01-30T17:16:02.496Z,6.27
2019-01-30T17:18:32.355Z,6.13
2019-01-30T17:21:02.279Z,6.03
2019-01-30T17:23:32.238Z,5.60
2019-01-30T17:26:01.869Z,6.00
2019-01-30T17:28:31.474Z,6.60
2019-01-30T17:31:07.895Z,6.77
2019-01-30T17:33:37.525Z,6.83
2019-01-30T17:36:17.940Z,5.63
2019-01-30T17:38:38.442Z,7.10
2019-01-30T17:41:08.291Z,5.93
2019-01-30T17:43:37.879Z,6.07
2019-01-30T17:46:07.460Z,6.47
2019-01-30T17:48:37.095Z,5.70
2019-01-30T17:51:07.026Z,6.60
2019-01-30T17:53:36.951Z,7.07
2019-01-30T17:56:06.779Z,6.90
2019-01-30T17:58:36.557Z,5.80
2019-01-30T18:01:07.502Z,6.30
2019-01-30T18:03:37.187Z,6.03
2019-01-30T18:06:06.800Z,7.27
2019-01-30T18:08:36.391Z,6.87
2019-01-30T18:11:06.044Z,6.60
2019-01-30T18:13:35.639Z,7.03
2019-01-30T18:16:05.691Z,6.30
2019-01-30T18:18:35.301Z,8.13
2019-01-30T18:21:05.051Z,6.63
2019-01-30T18:23:34.659Z,7.50
2019-01-30T18:26:04.802Z,7.43
2019-01-30T18:28:34.738Z,8.30
2019-01-30T18:31:04.778Z,8.20
2019-01-30T18:33:34.407Z,10.17
2019-01-30T18:36:04.535Z,8.00
2019-01-30T18:38:35.999Z,8.60
2019-01-30T18:41:06.379Z,8.33
2019-01-30T18:43:36.014Z,10.00
2019-01-30T18:46:06.171Z,10.80
2019-01-30T18:48:35.784Z,8.20
2019-01-30T18:51:05.467Z,9.40
2019-01-30T18:53:35.351Z,9.40
2019-01-30T18:56:05.095Z,9.37
2019-01-30T18:58:34.695Z,9.97
2019-01-30T19:01:06.775Z,9.53
2019-01-30T19:03:35.907Z,10.20
2019-01-30T19:06:06.720Z,10.27
2019-01-30T19:08:36.312Z,11.07
2019-01-30T19:11:05.913Z,10.30
2019-01-30T19:13:35.521Z,11.40
2019-01-30T19:16:05.689Z,10.83
2019-01-30T19:18:35.294Z,12.47
2019-01-30T19:21:05.039Z,12.10
2019-01-30T19:23:34.648Z,12.57
2019-01-30T19:26:04.515Z,12.80
2019-01-30T19:28:34.107Z,13.27
2019-01-30T19:31:04.283Z,12.67
2019-01-30T19:33:33.989Z,13.50
2019-01-30T19:36:03.591Z,12.60
2019-01-30T19:38:33.173Z,12.87
2019-01-30T19:41:02.807Z,13.63
2019-01-30T19:43:32.409Z,11.87
2019-01-30T19:46:02.074Z,13.20
2019-01-30T19:48:31.682Z,13.13
2019-01-30T19:51:01.757Z,14.00
2019-01-30T19:53:31.470Z,15.43
2019-01-30T19:56:01.060Z,12.93
2019-01-30T19:58:30.675Z,14.13
2019-01-30T20:01:00.466Z,14.30
2019-01-30T20:03:32.391Z,15.27
2019-01-30T20:06:02.018Z,15.50
2019-01-30T20:08:31.606Z,15.47
2019-01-30T20:11:01.228Z,15.80
2019-01-30T20:13:30.822Z,15.33
2019-01-30T20:16:00.611Z,16.37
2019-01-30T20:18:30.199Z,16.23
2019-01-30T20:20:59.803Z,16.90
2019-01-30T20:23:29.660Z,15.83
2019-01-30T20:25:59.371Z,17.23
2019-01-30T20:28:29.032Z,16.17
2019-01-30T20:31:01.183Z,17.30
2019-01-30T20:33:29.936Z,15.90
2019-01-30T20:35:59.549Z,16.50
2019-01-30T20:38:29.140Z,16.30
2019-01-30T20:40:59.107Z,15.60
2019-01-30T20:43:29.008Z,15.30
2019-01-30T20:45:58.656Z,16.07
2019-01-30T20:48:28.247Z,16.50
2019-01-30T20:50:57.877Z,17.07
2019-01-30T20:53:27.454Z,15.53
2019-01-30T20:55:57.082Z,16.07
2019-01-30T20:58:26.678Z,16.27
2019-01-30T21:00:56.397Z,15.73
2019-01-30T21:03:25.964Z,15.87
2019-01-30T21:05:55.570Z,16.37
2019-01-30T21:08:25.155Z,16.07
2019-01-30T21:10:54.855Z,16.40
2019-01-30T21:13:24.438Z,16.00
2019-01-30T21:15:54.047Z,15.40
2019-01-30T21:18:23.656Z,16.17
2019-01-30T21:20:53.274Z,15.47
2019-01-30T21:23:22.926Z,14.73
2019-01-30T21:25:52.599Z,15.77
2019-01-30T21:28:22.186Z,15.40
2019-01-30T21:30:51.859Z,14.60
2019-01-30T21:33:21.931Z,15.77
2019-01-30T21:35:51.543Z,14.90
2019-01-30T21:38:21.199Z,15.90
2019-01-30T21:40:51.795Z,17.07
2019-01-30T21:43:21.450Z,15.67
2019-01-30T21:45:51.137Z,15.33
2019-01-30T21:48:20.721Z,15.50
2019-01-30T21:50:50.331Z,16.33
2019-01-30T21:53:20.339Z,15.47
2019-01-30T21:55:49.951Z,16.07
2019-01-30T21:58:19.538Z,16.03
2019-01-30T22:00:49.251Z,15.80
2019-01-30T22:03:18.854Z,14.97
2019-01-30T22:05:48.540Z,15.53
2019-01-30T22:08:18.134Z,15.33
2019-01-30T22:10:47.740Z,14.90
2019-01-30T22:13:17.622Z,14.77
2019-01-30T22:15:47.214Z,15.13
2019-01-30T22:18:16.803Z,15.70
2019-01-30T22:20:46.426Z,14.70
2019-01-30T22:23:16.072Z,15.03
2019-01-30T22:25:45.675Z,14.57
2019-01-30T22:28:15.280Z,14.27
2019-01-30T22:30:44.888Z,15.37
2019-01-30T22:33:14.479Z,15.03
2019-01-30T22:35:44.107Z,15.20
2019-01-30T22:38:13.713Z,14.20
2019-01-30T22:40:43.320Z,16.13
2019-01-30T22:43:13.011Z,13.20
2019-01-30T22:45:42.626Z,13.90
2019-01-30T22:48:13.256Z,14.27
2019-01-30T22:50:42.808Z,14.30
2019-01-30T22:53:12.414Z,14.50
2019-01-30T22:55:42.040Z,14.00
2019-01-30T22:58:11.648Z,14.80
2019-01-30T23:01:01.342Z,14.50
2019-01-30T23:03:52.627Z,14.00
2019-01-30T23:06:54.323Z,16.07
2019-01-30T23:10:17.486Z,14.70
2019-01-30T23:13:17.747Z,14.47
2019-01-30T23:15:52.954Z,13.90
2019-01-30T23:18:44.211Z,14.83
2019-01-30T23:21:21.663Z,14.40
2019-01-30T23:24:30.799Z,15.00
2019-01-30T23:27:26.376Z,15.17
2019-01-30T23:30:39.398Z,13.77
2019-01-30T23:33:45.139Z,15.00
2019-01-30T23:36:51.175Z,14.47
2019-01-30T23:39:32.026Z,15.00
2019-01-30T23:42:22.779Z,14.37
2019-01-30T23:45:33.467Z,14.60
2019-01-30T23:48:46.906Z,15.10
2019-01-30T23:51:48.166Z,14.87
2019-01-30T23:54:28.816Z,15.53
2019-01-30T23:57:29.202Z,15.43
